sensor_id;sensor_type;location;lat;lon;timestamp;P1;durP1;ratioP1;P2;durP2;ratioP2
70729;SDS011;58315;53.336;55.932;2023-02-01T00:00:57;2.28;;;1.58;;
70729;SDS011;58315;53.336;55.932;2023-02-01T00:03:23;4.45;;;0.93;;
70729;SDS011;58315;53.336;55.932;2023-02-01T00:05:56;1.50;;;0.65;;
70729;SDS011;58315;53.336;55.932;2023-02-01T00:08:23;2.92;;;1.83;;
70729;SDS011;58315;53.336;55.932;2023-02-01T00:10:57;7.50;;;1.02;;
70729;SDS011;58315;53.336;55.932;2023-02-01T00:13:30;1.98;;;1.30;;
70729;SDS011;58315;53.336;55.932;2023-02-01T00:18:30;1.05;;;0.82;;
70729;SDS011;58315;53.336;55.932;2023-02-01T00:20:56;0.73;;;0.73;;
70729;SDS011;58315;53.336;55.932;2023-02-01T00:23:22;0.95;;;0.85;;
70729;SDS011;58315;53.336;55.932;2023-02-01T00:25:48;2.20;;;1.58;;
70729;SDS011;58315;53.336;55.932;2023-02-01T00:28:14;1.73;;;1.27;;
70729;SDS011;58315;53.336;55.932;2023-02-01T00:30:40;1.27;;;0.90;;
70729;SDS011;58315;53.336;55.932;2023-02-01T00:33:06;1.10;;;1.02;;
70729;SDS011;58315;53.336;55.932;2023-02-01T00:35:33;1.63;;;0.98;;
70729;SDS011;58315;53.336;55.932;2023-02-01T00:38:02;11.27;;;1.33;;
70729;SDS011;58315;53.336;55.932;2023-02-01T00:40:28;0.43;;;0.43;;
70729;SDS011;58315;53.336;55.932;2023-02-01T00:42:54;6.43;;;1.35;;
70729;SDS011;58315;53.336;55.932;2023-02-01T00:45:20;1.67;;;1.38;;
70729;SDS011;58315;53.336;55.932;2023-02-01T00:47:46;1.27;;;0.90;;
70729;SDS011;58315;53.336;55.932;2023-02-01T00:50:12;1.52;;;1.42;;
70729;SDS011;58315;53.336;55.932;2023-02-01T00:52:38;0.63;;;0.63;;
70729;SDS011;58315;53.336;55.932;2023-02-01T00:55:04;2.63;;;1.80;;
70729;SDS011;58315;53.336;55.932;2023-02-01T00:57:30;2.67;;;0.80;;
70729;SDS011;58315;53.336;55.932;2023-02-01T00:59:56;1.33;;;1.00;;
70729;SDS011;58315;53.336;55.932;2023-02-01T01:02:22;4.43;;;2.42;;
70729;SDS011;58315;53.336;55.932;2023-02-01T01:04:48;1.17;;;0.90;;
70729;SDS011;58315;53.336;55.932;2023-02-01T01:07:14;1.20;;;1.08;;
70729;SDS011;58315;53.336;55.932;2023-02-01T01:09:41;1.50;;;1.15;;
70729;SDS011;58315;53.336;55.932;2023-02-01T01:12:07;0.75;;;0.75;;
70729;SDS011;58315;53.336;55.932;2023-02-01T01:14:33;5.78;;;1.35;;
70729;SDS011;58315;53.336;55.932;2023-02-01T01:16:58;5.05;;;1.20;;
70729;SDS011;58315;53.336;55.932;2023-02-01T01:19:24;1.67;;;1.33;;
70729;SDS011;58315;53.336;55.932;2023-02-01T01:21:50;1.27;;;1.17;;
70729;SDS011;58315;53.336;55.932;2023-02-01T01:24:16;2.00;;;1.33;;
70729;SDS011;58315;53.336;55.932;2023-02-01T01:26:42;4.25;;;1.75;;
70729;SDS011;58315;53.336;55.932;2023-02-01T01:29:08;3.10;;;1.63;;
70729;SDS011;58315;53.336;55.932;2023-02-01T01:31:36;2.05;;;1.85;;
70729;SDS011;58315;53.336;55.932;2023-02-01T01:34:02;0.40;;;0.40;;
70729;SDS011;58315;53.336;55.932;2023-02-01T01:36:29;4.78;;;1.75;;
70729;SDS011;58315;53.336;55.932;2023-02-01T01:38:57;3.20;;;1.33;;
70729;SDS011;58315;53.336;55.932;2023-02-01T01:41:28;7.72;;;1.38;;
70729;SDS011;58315;53.336;55.932;2023-02-01T01:44:02;7.40;;;1.10;;
70729;SDS011;58315;53.336;55.932;2023-02-01T01:46:36;1.95;;;1.75;;
70729;SDS011;58315;53.336;55.932;2023-02-01T01:51:53;1.10;;;0.95;;
70729;SDS011;58315;53.336;55.932;2023-02-01T01:56:50;2.50;;;1.75;;
70729;SDS011;58315;53.336;55.932;2023-02-01T01:59:20;1.05;;;0.95;;
70729;SDS011;58315;53.336;55.932;2023-02-01T02:01:47;2.67;;;1.67;;
70729;SDS011;58315;53.336;55.932;2023-02-01T02:04:14;2.15;;;0.80;;
70729;SDS011;58315;53.336;55.932;2023-02-01T02:09:06;1.58;;;0.85;;
70729;SDS011;58315;53.336;55.932;2023-02-01T02:11:32;1.85;;;1.48;;
70729;SDS011;58315;53.336;55.932;2023-02-01T02:13:58;1.08;;;0.98;;
70729;SDS011;58315;53.336;55.932;2023-02-01T02:27:58;1.77;;;1.05;;
70729;SDS011;58315;53.336;55.932;2023-02-01T02:30:55;2.10;;;1.27;;
70729;SDS011;58315;53.336;55.932;2023-02-01T02:33:56;1.23;;;1.13;;
70729;SDS011;58315;53.336;55.932;2023-02-01T02:39:12;0.55;;;0.55;;
70729;SDS011;58315;53.336;55.932;2023-02-01T02:42:12;0.70;;;0.52;;
70729;SDS011;58315;53.336;55.932;2023-02-01T02:45:08;2.17;;;1.95;;
70729;SDS011;58315;53.336;55.932;2023-02-01T02:50:46;0.95;;;0.77;;
70729;SDS011;58315;53.336;55.932;2023-02-01T02:53:38;1.40;;;1.30;;
70729;SDS011;58315;53.336;55.932;2023-02-01T02:56:28;1.73;;;1.45;;
70729;SDS011;58315;53.336;55.932;2023-02-01T02:59:17;4.03;;;1.20;;
70729;SDS011;58315;53.336;55.932;2023-02-01T03:02:05;1.45;;;1.35;;
70729;SDS011;58315;53.336;55.932;2023-02-01T03:04:54;0.70;;;0.70;;
70729;SDS011;58315;53.336;55.932;2023-02-01T03:10:23;0.40;;;0.40;;
70729;SDS011;58315;53.336;55.932;2023-02-01T03:13:07;2.05;;;1.50;;
70729;SDS011;58315;53.336;55.932;2023-02-01T03:15:51;1.00;;;0.90;;
70729;SDS011;58315;53.336;55.932;2023-02-01T03:18:25;1.13;;;1.00;;
70729;SDS011;58315;53.336;55.932;2023-02-01T03:20:59;3.95;;;1.50;;
70729;SDS011;58315;53.336;55.932;2023-02-01T03:23:31;1.45;;;0.88;;
70729;SDS011;58315;53.336;55.932;2023-02-01T03:26:01;3.35;;;2.05;;
70729;SDS011;58315;53.336;55.932;2023-02-01T03:28:29;2.47;;;1.27;;
70729;SDS011;58315;53.336;55.932;2023-02-01T03:30:59;5.88;;;1.58;;
70729;SDS011;58315;53.336;55.932;2023-02-01T03:33:26;3.00;;;2.03;;
70729;SDS011;58315;53.336;55.932;2023-02-01T03:36:01;0.83;;;0.83;;
70729;SDS011;58315;53.336;55.932;2023-02-01T03:47:05;2.42;;;1.42;;
70729;SDS011;58315;53.336;55.932;2023-02-01T03:49:37;1.27;;;1.15;;
70729;SDS011;58315;53.336;55.932;2023-02-01T03:52:11;1.23;;;1.17;;
70729;SDS011;58315;53.336;55.932;2023-02-01T03:54:42;4.13;;;1.98;;
70729;SDS011;58315;53.336;55.932;2023-02-01T03:57:11;2.35;;;0.75;;
70729;SDS011;58315;53.336;55.932;2023-02-01T03:59:41;0.85;;;0.85;;
70729;SDS011;58315;53.336;55.932;2023-02-01T04:02:09;2.08;;;1.33;;
70729;SDS011;58315;53.336;55.932;2023-02-01T04:04:35;2.40;;;1.77;;
70729;SDS011;58315;53.336;55.932;2023-02-01T04:07:02;1.25;;;1.15;;
70729;SDS011;58315;53.336;55.932;2023-02-01T04:09:29;1.45;;;1.35;;
70729;SDS011;58315;53.336;55.932;2023-02-01T04:11:55;0.63;;;0.63;;
70729;SDS011;58315;53.336;55.932;2023-02-01T04:14:21;3.22;;;1.77;;
70729;SDS011;58315;53.336;55.932;2023-02-01T04:16:47;3.95;;;2.40;;
70729;SDS011;58315;53.336;55.932;2023-02-01T04:19:12;11.77;;;1.52;;
70729;SDS011;58315;53.336;55.932;2023-02-01T04:21:38;5.97;;;1.42;;
70729;SDS011;58315;53.336;55.932;2023-02-01T04:24:04;7.88;;;2.00;;
70729;SDS011;58315;53.336;55.932;2023-02-01T04:26:31;3.72;;;2.28;;
70729;SDS011;58315;53.336;55.932;2023-02-01T04:28:57;1.73;;;1.63;;
70729;SDS011;58315;53.336;55.932;2023-02-01T04:31:23;5.60;;;1.83;;
70729;SDS011;58315;53.336;55.932;2023-02-01T04:33:53;1.55;;;1.20;;
70729;SDS011;58315;53.336;55.932;2023-02-01T04:36:20;2.22;;;1.50;;
70729;SDS011;58315;53.336;55.932;2023-02-01T04:38:50;7.00;;;1.98;;
70729;SDS011;58315;53.336;55.932;2023-02-01T04:41:17;1.55;;;1.48;;
70729;SDS011;58315;53.336;55.932;2023-02-01T04:43:47;3.90;;;2.45;;
70729;SDS011;58315;53.336;55.932;2023-02-01T04:46:14;1.65;;;0.95;;
70729;SDS011;58315;53.336;55.932;2023-02-01T04:48:41;0.60;;;0.60;;
70729;SDS011;58315;53.336;55.932;2023-02-01T04:51:07;0.98;;;0.88;;
70729;SDS011;58315;53.336;55.932;2023-02-01T04:53:35;4.18;;;3.17;;
70729;SDS011;58315;53.336;55.932;2023-02-01T04:56:02;1.58;;;1.48;;
70729;SDS011;58315;53.336;55.932;2023-02-01T04:58:28;1.65;;;1.08;;
70729;SDS011;58315;53.336;55.932;2023-02-01T05:00:54;2.58;;;1.95;;
70729;SDS011;58315;53.336;55.932;2023-02-01T05:03:20;2.33;;;1.23;;
70729;SDS011;58315;53.336;55.932;2023-02-01T05:05:48;0.98;;;0.75;;
70729;SDS011;58315;53.336;55.932;2023-02-01T05:08:15;0.73;;;0.73;;
70729;SDS011;58315;53.336;55.932;2023-02-01T05:10:41;1.23;;;1.13;;
70729;SDS011;58315;53.336;55.932;2023-02-01T05:13:07;5.43;;;2.90;;
70729;SDS011;58315;53.336;55.932;2023-02-01T05:15:53;13.38;;;1.65;;
70729;SDS011;58315;53.336;55.932;2023-02-01T05:18:19;2.83;;;2.08;;
70729;SDS011;58315;53.336;55.932;2023-02-01T05:20:45;2.53;;;2.00;;
70729;SDS011;58315;53.336;55.932;2023-02-01T05:23:11;8.45;;;1.80;;
70729;SDS011;58315;53.336;55.932;2023-02-01T05:25:37;2.33;;;1.75;;
70729;SDS011;58315;53.336;55.932;2023-02-01T05:28:03;1.80;;;1.63;;
70729;SDS011;58315;53.336;55.932;2023-02-01T05:30:29;1.63;;;1.50;;
70729;SDS011;58315;53.336;55.932;2023-02-01T05:32:55;2.15;;;1.83;;
70729;SDS011;58315;53.336;55.932;2023-02-01T05:35:40;3.13;;;2.53;;
70729;SDS011;58315;53.336;55.932;2023-02-01T05:38:05;1.13;;;1.02;;
70729;SDS011;58315;53.336;55.932;2023-02-01T05:40:31;3.95;;;1.90;;
70729;SDS011;58315;53.336;55.932;2023-02-01T05:42:57;2.85;;;1.80;;
70729;SDS011;58315;53.336;55.932;2023-02-01T05:45:23;4.20;;;1.60;;
70729;SDS011;58315;53.336;55.932;2023-02-01T05:47:49;2.45;;;1.63;;
70729;SDS011;58315;53.336;55.932;2023-02-01T05:50:16;0.88;;;0.88;;
70729;SDS011;58315;53.336;55.932;2023-02-01T05:52:42;5.05;;;3.35;;
70729;SDS011;58315;53.336;55.932;2023-02-01T05:55:08;1.38;;;1.27;;
70729;SDS011;58315;53.336;55.932;2023-02-01T05:57:34;2.75;;;1.05;;
70729;SDS011;58315;53.336;55.932;2023-02-01T06:00:01;4.22;;;0.90;;
70729;SDS011;58315;53.336;55.932;2023-02-01T06:02:38;2.58;;;1.90;;
70729;SDS011;58315;53.336;55.932;2023-02-01T06:05:04;0.73;;;0.73;;
70729;SDS011;58315;53.336;55.932;2023-02-01T06:07:31;0.90;;;0.90;;
70729;SDS011;58315;53.336;55.932;2023-02-01T06:09:58;2.53;;;1.58;;
70729;SDS011;58315;53.336;55.932;2023-02-01T06:12:24;1.52;;;1.25;;
70729;SDS011;58315;53.336;55.932;2023-02-01T06:14:53;3.65;;;1.75;;
70729;SDS011;58315;53.336;55.932;2023-02-01T06:17:19;3.50;;;1.95;;
70729;SDS011;58315;53.336;55.932;2023-02-01T06:19:45;1.40;;;0.90;;
70729;SDS011;58315;53.336;55.932;2023-02-01T06:22:14;1.30;;;0.70;;
70729;SDS011;58315;53.336;55.932;2023-02-01T06:24:39;4.47;;;1.25;;
70729;SDS011;58315;53.336;55.932;2023-02-01T06:27:06;1.33;;;0.73;;
70729;SDS011;58315;53.336;55.932;2023-02-01T06:29:33;1.08;;;1.00;;
70729;SDS011;58315;53.336;55.932;2023-02-01T06:31:58;1.80;;;1.20;;
70729;SDS011;58315;53.336;55.932;2023-02-01T06:34:25;11.40;;;2.58;;
70729;SDS011;58315;53.336;55.932;2023-02-01T06:36:51;3.05;;;1.63;;
70729;SDS011;58315;53.336;55.932;2023-02-01T06:39:17;9.23;;;1.98;;
70729;SDS011;58315;53.336;55.932;2023-02-01T06:41:47;1.17;;;0.95;;
70729;SDS011;58315;53.336;55.932;2023-02-01T06:44:14;2.67;;;2.05;;
70729;SDS011;58315;53.336;55.932;2023-02-01T06:46:41;1.83;;;1.17;;
70729;SDS011;58315;53.336;55.932;2023-02-01T06:49:07;1.38;;;1.27;;
70729;SDS011;58315;53.336;55.932;2023-02-01T06:51:34;5.82;;;1.50;;
70729;SDS011;58315;53.336;55.932;2023-02-01T06:54:00;2.58;;;1.60;;
70729;SDS011;58315;53.336;55.932;2023-02-01T06:56:26;1.67;;;1.30;;
70729;SDS011;58315;53.336;55.932;2023-02-01T06:58:53;3.38;;;1.35;;
70729;SDS011;58315;53.336;55.932;2023-02-01T07:01:19;13.00;;;1.98;;
70729;SDS011;58315;53.336;55.932;2023-02-01T07:03:49;2.58;;;1.85;;
70729;SDS011;58315;53.336;55.932;2023-02-01T07:06:16;1.38;;;0.95;;
70729;SDS011;58315;53.336;55.932;2023-02-01T07:08:43;5.72;;;2.95;;
70729;SDS011;58315;53.336;55.932;2023-02-01T07:11:10;4.45;;;1.65;;
70729;SDS011;58315;53.336;55.932;2023-02-01T07:13:38;1.17;;;1.00;;
70729;SDS011;58315;53.336;55.932;2023-02-01T07:16:05;1.98;;;1.08;;
70729;SDS011;58315;53.336;55.932;2023-02-01T07:18:35;1.17;;;1.02;;
70729;SDS011;58315;53.336;55.932;2023-02-01T07:21:01;1.67;;;1.40;;
70729;SDS011;58315;53.336;55.932;2023-02-01T07:23:27;19.42;;;2.88;;
70729;SDS011;58315;53.336;55.932;2023-02-01T07:25:54;0.77;;;0.77;;
70729;SDS011;58315;53.336;55.932;2023-02-01T07:28:20;7.25;;;2.33;;
70729;SDS011;58315;53.336;55.932;2023-02-01T07:30:46;5.22;;;1.77;;
70729;SDS011;58315;53.336;55.932;2023-02-01T07:33:17;4.10;;;2.08;;
70729;SDS011;58315;53.336;55.932;2023-02-01T07:35:48;3.55;;;1.40;;
70729;SDS011;58315;53.336;55.932;2023-02-01T07:38:14;4.47;;;2.42;;
70729;SDS011;58315;53.336;55.932;2023-02-01T07:40:41;2.28;;;1.35;;
70729;SDS011;58315;53.336;55.932;2023-02-01T07:43:07;3.38;;;2.20;;
70729;SDS011;58315;53.336;55.932;2023-02-01T07:45:34;5.32;;;1.40;;
70729;SDS011;58315;53.336;55.932;2023-02-01T07:48:01;2.80;;;1.40;;
70729;SDS011;58315;53.336;55.932;2023-02-01T07:50:28;1.00;;;1.00;;
70729;SDS011;58315;53.336;55.932;2023-02-01T07:52:55;4.05;;;1.65;;
70729;SDS011;58315;53.336;55.932;2023-02-01T07:55:23;5.13;;;2.83;;
70729;SDS011;58315;53.336;55.932;2023-02-01T07:57:50;1.50;;;1.25;;
70729;SDS011;58315;53.336;55.932;2023-02-01T08:00:16;1.30;;;0.90;;
70729;SDS011;58315;53.336;55.932;2023-02-01T08:03:02;2.78;;;1.13;;
70729;SDS011;58315;53.336;55.932;2023-02-01T08:08:14;1.27;;;1.08;;
70729;SDS011;58315;53.336;55.932;2023-02-01T08:10:40;1.90;;;1.70;;
70729;SDS011;58315;53.336;55.932;2023-02-01T08:13:06;2.80;;;1.67;;
70729;SDS011;58315;53.336;55.932;2023-02-01T08:15:32;7.20;;;2.45;;
70729;SDS011;58315;53.336;55.932;2023-02-01T08:17:59;2.45;;;1.60;;
70729;SDS011;58315;53.336;55.932;2023-02-01T08:20:25;2.38;;;1.63;;
70729;SDS011;58315;53.336;55.932;2023-02-01T08:22:54;2.83;;;1.52;;
70729;SDS011;58315;53.336;55.932;2023-02-01T08:25:20;15.32;;;2.15;;
70729;SDS011;58315;53.336;55.932;2023-02-01T08:27:46;2.92;;;1.90;;
70729;SDS011;58315;53.336;55.932;2023-02-01T08:30:13;4.22;;;1.83;;
70729;SDS011;58315;53.336;55.932;2023-02-01T08:32:39;4.10;;;1.92;;
70729;SDS011;58315;53.336;55.932;2023-02-01T08:35:06;2.83;;;2.15;;
70729;SDS011;58315;53.336;55.932;2023-02-01T08:37:32;3.70;;;1.48;;
70729;SDS011;58315;53.336;55.932;2023-02-01T08:39:58;2.38;;;1.50;;
70729;SDS011;58315;53.336;55.932;2023-02-01T08:42:24;3.20;;;2.25;;
70729;SDS011;58315;53.336;55.932;2023-02-01T08:45:09;1.77;;;1.30;;
70729;SDS011;58315;53.336;55.932;2023-02-01T08:47:36;6.93;;;2.00;;
70729;SDS011;58315;53.336;55.932;2023-02-01T08:50:02;4.03;;;1.80;;
70729;SDS011;58315;53.336;55.932;2023-02-01T08:52:29;7.40;;;3.60;;
70729;SDS011;58315;53.336;55.932;2023-02-01T08:54:55;1.80;;;1.25;;
70729;SDS011;58315;53.336;55.932;2023-02-01T08:57:21;6.00;;;1.50;;
70729;SDS011;58315;53.336;55.932;2023-02-01T08:59:48;3.05;;;1.75;;
70729;SDS011;58315;53.336;55.932;2023-02-01T09:02:21;2.30;;;1.35;;
70729;SDS011;58315;53.336;55.932;2023-02-01T09:04:47;8.55;;;2.17;;
70729;SDS011;58315;53.336;55.932;2023-02-01T09:07:13;5.68;;;2.30;;
70729;SDS011;58315;53.336;55.932;2023-02-01T09:09:40;2.25;;;1.40;;
70729;SDS011;58315;53.336;55.932;2023-02-01T09:12:06;3.63;;;1.85;;
70729;SDS011;58315;53.336;55.932;2023-02-01T09:14:31;17.77;;;1.98;;
70729;SDS011;58315;53.336;55.932;2023-02-01T09:16:57;4.00;;;2.17;;
70729;SDS011;58315;53.336;55.932;2023-02-01T09:19:23;3.72;;;1.60;;
70729;SDS011;58315;53.336;55.932;2023-02-01T09:21:49;5.75;;;2.17;;
70729;SDS011;58315;53.336;55.932;2023-02-01T09:24:15;8.60;;;2.45;;
70729;SDS011;58315;53.336;55.932;2023-02-01T09:26:41;8.68;;;3.40;;
70729;SDS011;58315;53.336;55.932;2023-02-01T09:29:07;4.07;;;2.17;;
70729;SDS011;58315;53.336;55.932;2023-02-01T09:31:36;4.72;;;1.83;;
70729;SDS011;58315;53.336;55.932;2023-02-01T09:34:04;7.20;;;2.58;;
70729;SDS011;58315;53.336;55.932;2023-02-01T09:36:30;5.07;;;2.83;;
70729;SDS011;58315;53.336;55.932;2023-02-01T09:38:57;6.65;;;2.10;;
70729;SDS011;58315;53.336;55.932;2023-02-01T09:41:31;3.28;;;1.75;;
70729;SDS011;58315;53.336;55.932;2023-02-01T09:46:45;7.05;;;2.90;;
70729;SDS011;58315;53.336;55.932;2023-02-01T09:49:30;32.05;;;2.55;;
70729;SDS011;58315;53.336;55.932;2023-02-01T09:51:59;7.88;;;3.97;;
70729;SDS011;58315;53.336;55.932;2023-02-01T09:54:38;9.35;;;2.30;;
70729;SDS011;58315;53.336;55.932;2023-02-01T09:57:08;8.25;;;2.38;;
70729;SDS011;58315;53.336;55.932;2023-02-01T09:59:41;20.60;;;2.47;;
70729;SDS011;58315;53.336;55.932;2023-02-01T10:02:20;11.90;;;1.83;;
70729;SDS011;58315;53.336;55.932;2023-02-01T10:04:52;4.88;;;2.53;;
70729;SDS011;58315;53.336;55.932;2023-02-01T10:07:30;7.13;;;2.15;;
70729;SDS011;58315;53.336;55.932;2023-02-01T10:10:01;9.38;;;2.38;;
70729;SDS011;58315;53.336;55.932;2023-02-01T10:26:26;9.40;;;2.58;;
70729;SDS011;58315;53.336;55.932;2023-02-01T10:28:58;4.47;;;2.25;;
70729;SDS011;58315;53.336;55.932;2023-02-01T10:31:36;4.95;;;2.42;;
70729;SDS011;58315;53.336;55.932;2023-02-01T10:34:10;1.90;;;1.63;;
70729;SDS011;58315;53.336;55.932;2023-02-01T10:37:13;5.10;;;2.03;;
70729;SDS011;58315;53.336;55.932;2023-02-01T10:39:47;3.55;;;2.53;;
70729;SDS011;58315;53.336;55.932;2023-02-01T10:42:16;8.57;;;2.72;;
70729;SDS011;58315;53.336;55.932;2023-02-01T10:44:45;18.70;;;3.30;;
70729;SDS011;58315;53.336;55.932;2023-02-01T10:47:13;4.40;;;2.08;;
70729;SDS011;58315;53.336;55.932;2023-02-01T10:52:27;12.40;;;2.50;;
70729;SDS011;58315;53.336;55.932;2023-02-01T10:54:55;4.63;;;2.05;;
70729;SDS011;58315;53.336;55.932;2023-02-01T10:57:23;6.10;;;2.08;;
70729;SDS011;58315;53.336;55.932;2023-02-01T10:59:53;7.25;;;2.38;;
70729;SDS011;58315;53.336;55.932;2023-02-01T11:02:31;3.45;;;2.00;;
70729;SDS011;58315;53.336;55.932;2023-02-01T11:05:00;2.88;;;2.10;;
70729;SDS011;58315;53.336;55.932;2023-02-01T11:07:38;1.85;;;1.15;;
70729;SDS011;58315;53.336;55.932;2023-02-01T11:13:01;2.78;;;1.05;;
70729;SDS011;58315;53.336;55.932;2023-02-01T11:15:28;5.13;;;2.20;;
70729;SDS011;58315;53.336;55.932;2023-02-01T11:17:54;5.78;;;2.05;;
70729;SDS011;58315;53.336;55.932;2023-02-01T11:22:57;20.00;;;3.60;;
70729;SDS011;58315;53.336;55.932;2023-02-01T11:25:23;5.97;;;2.85;;
70729;SDS011;58315;53.336;55.932;2023-02-01T11:27:51;7.80;;;2.92;;
70729;SDS011;58315;53.336;55.932;2023-02-01T11:30:36;13.88;;;3.67;;
70729;SDS011;58315;53.336;55.932;2023-02-01T11:33:07;25.10;;;3.53;;
70729;SDS011;58315;53.336;55.932;2023-02-01T11:35:41;19.63;;;6.28;;
70729;SDS011;58315;53.336;55.932;2023-02-01T11:41:20;15.63;;;3.83;;
70729;SDS011;58315;53.336;55.932;2023-02-01T11:43:53;34.92;;;3.92;;
70729;SDS011;58315;53.336;55.932;2023-02-01T11:46:27;22.20;;;4.03;;
70729;SDS011;58315;53.336;55.932;2023-02-01T11:48:55;20.58;;;4.20;;
70729;SDS011;58315;53.336;55.932;2023-02-01T11:51:49;16.33;;;4.38;;
70729;SDS011;58315;53.336;55.932;2023-02-01T11:54:33;9.60;;;3.38;;
70729;SDS011;58315;53.336;55.932;2023-02-01T11:59:55;13.10;;;4.35;;
70729;SDS011;58315;53.336;55.932;2023-02-01T12:16:37;36.50;;;3.55;;
70729;SDS011;58315;53.336;55.932;2023-02-01T12:25:13;28.70;;;4.55;;
70729;SDS011;58315;53.336;55.932;2023-02-01T12:52:16;9.65;;;3.35;;
70729;SDS011;58315;53.336;55.932;2023-02-01T12:54:57;8.35;;;3.00;;
70729;SDS011;58315;53.336;55.932;2023-02-01T12:57:44;5.63;;;2.78;;
70729;SDS011;58315;53.336;55.932;2023-02-01T13:00:31;4.20;;;2.33;;
70729;SDS011;58315;53.336;55.932;2023-02-01T13:05:44;5.70;;;3.72;;
70729;SDS011;58315;53.336;55.932;2023-02-01T13:08:19;7.38;;;3.13;;
70729;SDS011;58315;53.336;55.932;2023-02-01T13:10:51;12.30;;;4.45;;
70729;SDS011;58315;53.336;55.932;2023-02-01T13:13:31;4.82;;;2.80;;
70729;SDS011;58315;53.336;55.932;2023-02-01T13:16:16;12.07;;;3.78;;
70729;SDS011;58315;53.336;55.932;2023-02-01T13:21:43;23.40;;;4.25;;
70729;SDS011;58315;53.336;55.932;2023-02-01T13:26:56;11.15;;;4.22;;
70729;SDS011;58315;53.336;55.932;2023-02-01T13:29:22;10.07;;;6.53;;
70729;SDS011;58315;53.336;55.932;2023-02-01T13:34:49;20.02;;;5.78;;
70729;SDS011;58315;53.336;55.932;2023-02-01T13:43:02;31.45;;;7.68;;
70729;SDS011;58315;53.336;55.932;2023-02-01T13:45:34;57.45;;;9.98;;
70729;SDS011;58315;53.336;55.932;2023-02-01T13:48:14;29.88;;;8.77;;
70729;SDS011;58315;53.336;55.932;2023-02-01T13:50:50;50.22;;;12.52;;
70729;SDS011;58315;53.336;55.932;2023-02-01T13:53:21;34.10;;;13.75;;
70729;SDS011;58315;53.336;55.932;2023-02-01T13:58:36;44.58;;;15.45;;
70729;SDS011;58315;53.336;55.932;2023-02-01T14:03:49;34.05;;;11.68;;
70729;SDS011;58315;53.336;55.932;2023-02-01T14:19:25;17.80;;;8.32;;
70729;SDS011;58315;53.336;55.932;2023-02-01T14:21:57;34.25;;;11.07;;
70729;SDS011;58315;53.336;55.932;2023-02-01T14:24:26;28.08;;;10.35;;
70729;SDS011;58315;53.336;55.932;2023-02-01T14:27:01;43.53;;;12.18;;
70729;SDS011;58315;53.336;55.932;2023-02-01T14:29:42;21.08;;;9.15;;
70729;SDS011;58315;53.336;55.932;2023-02-01T14:34:52;25.15;;;9.70;;
70729;SDS011;58315;53.336;55.932;2023-02-01T14:53:06;37.30;;;10.45;;
70729;SDS011;58315;53.336;55.932;2023-02-01T15:01:24;27.60;;;10.02;;
70729;SDS011;58315;53.336;55.932;2023-02-01T15:03:55;22.10;;;8.82;;
70729;SDS011;58315;53.336;55.932;2023-02-01T15:14:42;22.50;;;6.95;;
70729;SDS011;58315;53.336;55.932;2023-02-01T15:17:30;15.15;;;5.63;;
70729;SDS011;58315;53.336;55.932;2023-02-01T15:22:51;27.48;;;7.55;;
70729;SDS011;58315;53.336;55.932;2023-02-01T15:25:21;22.65;;;6.07;;
70729;SDS011;58315;53.336;55.932;2023-02-01T15:27:59;50.40;;;8.15;;
70729;SDS011;58315;53.336;55.932;2023-02-01T15:30:27;19.35;;;5.93;;
70729;SDS011;58315;53.336;55.932;2023-02-01T15:35:42;19.45;;;6.88;;
70729;SDS011;58315;53.336;55.932;2023-02-01T15:41:19;17.00;;;4.70;;
70729;SDS011;58315;53.336;55.932;2023-02-01T15:46:38;34.83;;;5.45;;
70729;SDS011;58315;53.336;55.932;2023-02-01T15:49:27;13.77;;;5.82;;
70729;SDS011;58315;53.336;55.932;2023-02-01T15:51:56;17.13;;;6.28;;
70729;SDS011;58315;53.336;55.932;2023-02-01T15:54:31;16.08;;;7.85;;
70729;SDS011;58315;53.336;55.932;2023-02-01T15:57:07;19.17;;;5.68;;
70729;SDS011;58315;53.336;55.932;2023-02-01T15:59:44;22.58;;;6.20;;
70729;SDS011;58315;53.336;55.932;2023-02-01T16:02:27;13.60;;;5.45;;
70729;SDS011;58315;53.336;55.932;2023-02-01T16:05:05;37.13;;;11.25;;
70729;SDS011;58315;53.336;55.932;2023-02-01T16:08:10;13.10;;;6.03;;
70729;SDS011;58315;53.336;55.932;2023-02-01T16:10:41;13.07;;;4.78;;
70729;SDS011;58315;53.336;55.932;2023-02-01T16:13:13;26.17;;;6.15;;
70729;SDS011;58315;53.336;55.932;2023-02-01T16:15:41;24.73;;;6.32;;
70729;SDS011;58315;53.336;55.932;2023-02-01T16:18:07;9.43;;;5.30;;
70729;SDS011;58315;53.336;55.932;2023-02-01T16:20:37;9.20;;;5.45;;
70729;SDS011;58315;53.336;55.932;2023-02-01T16:23:05;17.08;;;8.82;;
70729;SDS011;58315;53.336;55.932;2023-02-01T16:25:39;19.70;;;5.68;;
70729;SDS011;58315;53.336;55.932;2023-02-01T16:28:05;12.32;;;6.60;;
70729;SDS011;58315;53.336;55.932;2023-02-01T16:30:42;16.67;;;5.95;;
70729;SDS011;58315;53.336;55.932;2023-02-01T16:33:14;28.27;;;6.72;;
70729;SDS011;58315;53.336;55.932;2023-02-01T16:35:45;12.98;;;5.00;;
70729;SDS011;58315;53.336;55.932;2023-02-01T16:38:11;16.55;;;8.07;;
70729;SDS011;58315;53.336;55.932;2023-02-01T16:40:39;15.20;;;7.03;;
70729;SDS011;58315;53.336;55.932;2023-02-01T16:43:12;19.05;;;5.40;;
70729;SDS011;58315;53.336;55.932;2023-02-01T16:45:46;15.35;;;5.05;;
70729;SDS011;58315;53.336;55.932;2023-02-01T16:48:16;33.92;;;8.35;;
70729;SDS011;58315;53.336;55.932;2023-02-01T16:50:43;13.18;;;6.38;;
70729;SDS011;58315;53.336;55.932;2023-02-01T16:53:12;10.63;;;6.00;;
70729;SDS011;58315;53.336;55.932;2023-02-01T16:55:46;7.82;;;4.78;;
70729;SDS011;58315;53.336;55.932;2023-02-01T16:58:18;16.88;;;7.35;;
70729;SDS011;58315;53.336;55.932;2023-02-01T17:00:46;11.60;;;5.18;;
70729;SDS011;58315;53.336;55.932;2023-02-01T17:03:13;49.53;;;8.32;;
70729;SDS011;58315;53.336;55.932;2023-02-01T17:05:46;44.80;;;7.05;;
70729;SDS011;58315;53.336;55.932;2023-02-01T17:08:15;19.13;;;6.82;;
70729;SDS011;58315;53.336;55.932;2023-02-01T17:11:03;22.90;;;9.65;;
70729;SDS011;58315;53.336;55.932;2023-02-01T17:13:31;27.75;;;8.88;;
70729;SDS011;58315;53.336;55.932;2023-02-01T17:15:59;18.83;;;6.70;;
70729;SDS011;58315;53.336;55.932;2023-02-01T17:18:27;12.88;;;6.00;;
70729;SDS011;58315;53.336;55.932;2023-02-01T17:20:57;16.23;;;5.93;;
70729;SDS011;58315;53.336;55.932;2023-02-01T17:23:24;22.10;;;8.65;;
70729;SDS011;58315;53.336;55.932;2023-02-01T17:25:51;13.57;;;8.05;;
70729;SDS011;58315;53.336;55.932;2023-02-01T17:28:37;11.85;;;5.13;;
70729;SDS011;58315;53.336;55.932;2023-02-01T17:31:03;12.73;;;4.85;;
70729;SDS011;58315;53.336;55.932;2023-02-01T17:33:31;11.85;;;4.75;;
70729;SDS011;58315;53.336;55.932;2023-02-01T17:36:00;60.88;;;5.30;;
70729;SDS011;58315;53.336;55.932;2023-02-01T17:38:26;6.97;;;5.82;;
70729;SDS011;58315;53.336;55.932;2023-02-01T17:40:52;9.60;;;4.28;;
70729;SDS011;58315;53.336;55.932;2023-02-01T17:43:22;21.90;;;4.72;;
70729;SDS011;58315;53.336;55.932;2023-02-01T17:46:00;7.13;;;3.03;;
70729;SDS011;58315;53.336;55.932;2023-02-01T17:48:29;27.92;;;5.05;;
70729;SDS011;58315;53.336;55.932;2023-02-01T17:50:55;11.88;;;6.07;;
70729;SDS011;58315;53.336;55.932;2023-02-01T17:53:24;7.85;;;4.53;;
70729;SDS011;58315;53.336;55.932;2023-02-01T17:55:52;9.10;;;3.85;;
70729;SDS011;58315;53.336;55.932;2023-02-01T17:58:18;13.90;;;5.00;;
70729;SDS011;58315;53.336;55.932;2023-02-01T18:00:46;18.77;;;4.60;;
70729;SDS011;58315;53.336;55.932;2023-02-01T18:03:19;12.95;;;3.47;;
70729;SDS011;58315;53.336;55.932;2023-02-01T18:05:53;37.80;;;4.00;;